Gerald R. Ford International Airport
KGRR : rendu visible

Aérodrome :











RETROUVEZ-NOUS SUR...

 
LOGIN :

S'inscrire | Disclaimer

   EN    FR    IT 

 









Légende :    VFR   VFR Marginal   IFR   IFR Intensif   IFR Très Intensif
Visi : 
Plafond : 
>= 8 km
>= 3000ft
5 à 8 km
1000 à 3000 ft
1500m à 5 km
500 à 1000 ft
800 à 1500m
200 à 500 ft
< 800m
< 200 ft
Symboles :   Orages  Brouillard  Fortes neiges  Fortes précipitations  Vent > 20 kt






- Altitude de l'aérodrome : 794 ft
- Code IATA : GRR


KGRR - Gerald R. Ford International

DERNIER METAR :
  • 262353Z 16014G21KT 10SM FEW050 SCT140 BKN210 27/18 A2999 RMK AO2 SLP149 CB DSNT SW-N MOV N T02720178 10322 20272 53009

METARs EXPIRÉS :
  • 262253Z 18009KT 10SM FEW050 SCT140 BKN250 29/18 A2997 RMK AO2 LTG DSNT N AND W SLP144 CB DSNT SE-W-N MOV N T02940183
  • 262153Z 15012G23KT 10SM SCT060 SCT140 BKN250 31/18 A2996 RMK AO2 LTG DSNT W AND NW SLP139 CB DSNT S-NW MOV N T03060183

TAF KGRR
Valide du 27 à 00h jusqu'au 28 à 00h UTC


262340Z 2700/2724 18008KT P6SM VCSH BKN050
FM270100 VRB03KT P6SM SCT200
FM271500 VRB04KT P6SM VCTS SCT060CB
FM271800 19005KT P6SM SHRA VCTS BKN040CB
FIR KZAU / Amérique du Nord



MET'MAP, la Météo Aéronautique d'un coup d'oeil ! - Copyright ORBIFLY Décembre 2007 - Disclaimer

ORBIFLY MET'MAP TEAM :

Programmation & Développement : Alexandra Zaïnal
Sur une idée originale de : Baudouin d'Aumeries
Assistance à la programmation : Marc-Olivier Méhu
Soutien technique & logistique : Manuel Goepfert

Contact : metmap@orbifly.com




SOURCES & CREDITS :

   NOAA       Earth
Advisory